Time,TemperatureF,DewpointF,PressureIn,WindDirection,WindDirectionDegrees,WindSpeedMPH,WindSpeedGustMPH,Humidity,HourlyPrecipIn,Conditions,Clouds,dailyrainin,SoftwareType,DateUTC
2013-09-07 00:24:00,61.0,59.0,30.14,North,349,0.0,-999.0,93,-99.99,,,-99.99,,2013-09-07 04:24:00,
2013-09-07 00:54:00,60.0,58.0,30.13,North,349,0.0,-999.0,93,-99.99,,,-99.99,,2013-09-07 04:54:00,
2013-09-07 01:13:00,60.0,58.0,30.14,North,349,0.0,-999.0,94,-99.99,,,-99.99,,2013-09-07 05:13:00,
2013-09-07 01:23:00,60.0,58.0,30.13,North,349,0.0,-999.0,94,-99.99,,,-99.99,,2013-09-07 05:23:00,
2013-09-07 01:52:00,60.0,58.0,30.13,North,349,0.0,-999.0,94,-99.99,,,-99.99,,2013-09-07 05:52:00,
2013-09-07 02:13:00,60.0,58.0,30.13,North,349,0.0,-999.0,94,-99.99,,,-99.99,,2013-09-07 06:13:00,
2013-09-07 02:22:00,60.0,58.0,30.12,North,349,0.0,-999.0,94,-99.99,,,-99.99,,2013-09-07 06:22:00,
2013-09-07 02:52:00,59.0,57.0,30.12,North,349,0.0,-999.0,94,-99.99,,,-99.99,,2013-09-07 06:52:00,
2013-09-07 03:12:00,59.0,57.0,30.11,North,349,0.0,-999.0,94,-99.99,,,-99.99,,2013-09-07 07:12:00,
2013-09-07 03:22:00,59.0,57.0,30.11,North,349,0.0,-999.0,94,-99.99,,,-99.99,,2013-09-07 07:22:00,
2013-09-07 03:52:00,58.0,56.0,30.11,North,349,0.0,-999.0,94,-99.99,,,-99.99,,2013-09-07 07:52:00,
2013-09-07 04:12:00,58.0,56.0,30.11,North,349,0.0,-999.0,94,-99.99,,,-99.99,,2013-09-07 08:12:00,
2013-09-07 04:22:00,58.0,56.0,30.11,North,349,0.0,-999.0,94,-99.99,,,-99.99,,2013-09-07 08:22:00,
2013-09-07 04:53:00,57.0,55.0,30.11,North,349,0.0,-999.0,94,-99.99,,,-99.99,,2013-09-07 08:53:00,
2013-09-07 05:12:00,56.0,54.0,30.11,North,349,0.0,-999.0,94,-99.99,,,-99.99,,2013-09-07 09:12:00,
2013-09-07 05:21:00,56.0,54.0,30.11,North,349,0.0,-999.0,94,-99.99,,,-99.99,,2013-09-07 09:21:00,
2013-09-07 05:52:00,56.0,55.0,30.11,North,349,0.0,-999.0,95,-99.99,,,-99.99,,2013-09-07 09:52:00,
2013-09-07 06:11:00,55.0,54.0,30.11,North,349,0.0,-999.0,95,-99.99,,,-99.99,,2013-09-07 10:11:00,
2013-09-07 06:21:00,55.0,54.0,30.11,North,349,0.0,-999.0,95,-99.99,,,-99.99,,2013-09-07 10:21:00,
2013-09-07 06:51:00,55.0,54.0,30.12,North,349,0.0,-999.0,95,-99.99,,,-99.99,,2013-09-07 10:51:00,
2013-09-07 07:13:00,55.0,54.0,30.12,North,349,0.0,-999.0,95,-99.99,,,-99.99,,2013-09-07 11:13:00,
2013-09-07 07:23:00,55.0,54.0,30.12,North,349,0.0,-999.0,95,-99.99,,,-99.99,,2013-09-07 11:23:00,
2013-09-07 07:52:00,55.0,54.0,30.13,North,349,0.0,-999.0,95,-99.99,,,-99.99,,2013-09-07 11:52:00,
2013-09-07 08:12:00,55.0,54.0,30.13,North,349,0.0,-999.0,95,-99.99,,,-99.99,,2013-09-07 12:12:00,
2013-09-07 08:22:00,55.0,54.0,30.13,North,349,0.0,-999.0,95,-99.99,,,-99.99,,2013-09-07 12:22:00,
2013-09-07 08:52:00,57.0,56.0,30.13,West,267,0.0,-999.0,96,-99.99,,,-99.99,,2013-09-07 12:52:00,
2013-09-07 09:12:00,59.0,58.0,30.13,West,263,0.0,-999.0,96,-99.99,,,-99.99,,2013-09-07 13:12:00,
2013-09-07 09:21:00,59.0,58.0,30.12,West,263,0.0,-999.0,96,-99.99,,,-99.99,,2013-09-07 13:21:00,
2013-09-07 09:52:00,64.0,63.0,30.12,WSW,257,0.0,-999.0,96,-99.99,,,-99.99,,2013-09-07 13:52:00,
2013-09-07 10:11:00,65.0,62.0,30.12,WSW,257,0.0,-999.0,91,-99.99,,,-99.99,,2013-09-07 14:11:00,
2013-09-07 10:22:00,66.0,63.0,30.12,WSW,257,0.0,-999.0,91,-99.99,,,-99.99,,2013-09-07 14:22:00,
2013-09-07 10:52:00,71.0,64.0,30.12,WNW,294,0.0,-999.0,79,-99.99,,,-99.99,,2013-09-07 14:52:00,
2013-09-07 11:11:00,73.0,65.0,30.12,West,281,2.0,-999.0,77,-99.99,,,-99.99,,2013-09-07 15:11:00,
2013-09-07 11:23:00,73.0,65.0,30.12,West,281,2.0,-999.0,76,-99.99,,,-99.99,,2013-09-07 15:23:00,
2013-09-07 11:54:00,77.0,68.0,30.12,WNW,294,2.0,-999.0,73,-99.99,,,-99.99,,2013-09-07 15:54:00,
2013-09-07 12:24:00,78.0,67.0,30.12,NW,306,2.0,-999.0,69,-99.99,,,-99.99,,2013-09-07 16:24:00,
2013-09-07 12:53:00,80.0,66.0,30.11,NW,313,1.0,-999.0,63,-99.99,,,-99.99,,2013-09-07 16:53:00,
2013-09-07 13:24:00,81.0,65.0,30.09,NW,318,3.0,-999.0,58,-99.99,,,-99.99,,2013-09-07 17:24:00,
2013-09-07 13:43:00,82.0,65.0,30.09,West,279,2.0,-999.0,56,-99.99,,,-99.99,,2013-09-07 17:43:00,
2013-09-07 13:52:00,82.0,64.0,30.09,West,279,1.0,-999.0,54,-99.99,,,-99.99,,2013-09-07 17:52:00,
2013-09-07 14:13:00,82.0,64.0,30.09,WNW,289,4.0,-999.0,54,-99.99,,,-99.99,,2013-09-07 18:13:00,
2013-09-07 14:22:00,82.0,63.0,30.08,NW,320,3.0,-999.0,53,-99.99,,,-99.99,,2013-09-07 18:22:00,
2013-09-07 14:52:00,83.0,65.0,30.07,WNW,296,3.0,-999.0,55,-99.99,,,-99.99,,2013-09-07 18:52:00,
2013-09-07 15:11:00,84.0,66.0,30.06,West,269,4.0,-999.0,55,-99.99,,,-99.99,,2013-09-07 19:11:00,
2013-09-07 15:22:00,84.0,67.0,30.06,WSW,241,4.0,-999.0,56,-99.99,,,-99.99,,2013-09-07 19:22:00,
2013-09-07 15:52:00,85.0,66.0,30.05,WNW,290,1.0,-999.0,54,-99.99,,,-99.99,,2013-09-07 19:52:00,
2013-09-07 16:22:00,84.0,66.0,30.03,WNW,288,3.0,-999.0,55,-99.99,,,-99.99,,2013-09-07 20:22:00,
2013-09-07 16:53:00,85.0,66.0,30.03,West,278,5.0,-999.0,53,-99.99,,,-99.99,,2013-09-07 20:53:00,
2013-09-07 17:22:00,84.0,66.0,30.01,West,280,3.0,-999.0,54,-99.99,,,-99.99,,2013-09-07 21:22:00,
2013-09-07 17:54:00,85.0,66.0,30.01,WSW,256,3.0,-999.0,54,-99.99,,,-99.99,,2013-09-07 21:54:00,
2013-09-07 18:24:00,85.0,66.0,30.01,WNW,292,3.0,-999.0,54,-99.99,,,-99.99,,2013-09-07 22:24:00,
2013-09-07 18:53:00,83.0,67.0,30.01,WNW,300,1.0,-999.0,59,-99.99,,,-99.99,,2013-09-07 22:53:00,
2013-09-07 19:23:00,83.0,71.0,30.01,WNW,286,0.0,-999.0,68,-99.99,,,-99.99,,2013-09-07 23:23:00,
2013-09-07 19:52:00,79.0,70.0,30.01,NNW,335,0.0,-999.0,75,-99.99,,,-99.99,,2013-09-07 23:52:00,
2013-09-07 20:11:00,77.0,70.0,30.01,North,355,0.0,-999.0,80,-99.99,,,-99.99,,2013-09-08 00:11:00,
2013-09-07 20:22:00,76.0,69.0,30.00,North,355,0.0,-999.0,80,-99.99,,,-99.99,,2013-09-08 00:22:00,
2013-09-07 20:42:00,74.0,69.0,30.01,North,355,0.0,-999.0,84,-99.99,,,-99.99,,2013-09-08 00:42:00,
2013-09-07 20:52:00,73.0,68.0,30.01,North,355,0.0,-999.0,85,-99.99,,,-99.99,,2013-09-08 00:52:00,
2013-09-07 21:11:00,72.0,68.0,30.01,North,355,0.0,-999.0,87,-99.99,,,-99.99,,2013-09-08 01:11:00,
2013-09-07 21:22:00,72.0,68.0,30.01,North,355,0.0,-999.0,88,-99.99,,,-99.99,,2013-09-08 01:22:00,
2013-09-07 21:42:00,70.0,67.0,30.02,North,355,0.0,-999.0,89,-99.99,,,-99.99,,2013-09-08 01:42:00,
2013-09-07 21:52:00,70.0,67.0,30.02,North,355,0.0,-999.0,91,-99.99,,,-99.99,,2013-09-08 01:52:00,
2013-09-07 22:12:00,69.0,66.0,30.02,North,355,0.0,-999.0,91,-99.99,,,-99.99,,2013-09-08 02:12:00,
2013-09-07 22:23:00,69.0,66.0,30.02,North,355,0.0,-999.0,91,-99.99,,,-99.99,,2013-09-08 02:23:00,
2013-09-07 22:43:00,69.0,67.0,30.03,North,355,0.0,-999.0,92,-99.99,,,-99.99,,2013-09-08 02:43:00,
2013-09-07 22:52:00,68.0,66.0,30.02,North,355,0.0,-999.0,92,-99.99,,,-99.99,,2013-09-08 02:52:00,
2013-09-07 23:23:00,68.0,66.0,30.02,North,355,0.0,-999.0,92,-99.99,,,-99.99,,2013-09-08 03:23:00,
2013-09-07 23:54:00,67.0,65.0,30.01,North,355,0.0,-999.0,93,-99.99,,,-99.99,,2013-09-08 03:54:00,